CA-0426 weather

Public forecast

Using degrees Celsius for public forecast. Weather courtesy of forecast.io.

Closest aviation weather report (METAR) to Herb's Travel Plaza Airstrip

Closest report is Montreal International (Mirabel) Airport, 29.7 nm (55.0 km) ENE. Retrieved 2020/08/10 02:00 UTC (37 minutes ago):

CYMX 100200Z 00000KT 25SM OVC024 19/18 A3000 RMK SC8 SLP161 DENSITY ALT 800FT

Closest aviation forecast (TAF) to Herb's Travel Plaza Airstrip

Closest forecast is Montreal International (Mirabel) Airport, 29.7 nm (55.0 km) ENE. Retrieved 2020-08-10 00:42 UTC (2 hours ago):

TAF TAF CYMX 092338Z 1000/1024 VRB03KT P6SM OVC025 TEMPO 1000/1006 BKN012 OVC025 FM100600 VRB03KT 5SM BR OVC008 FM100800 VRB03KT 2SM BR OVC004 PROB30 1008/1012 3/4SM -DZ BR OVC002 FM101200 VRB03KT 5SM BR OVC008 FM101400 18005KT P6SM BKN020 FM101600 20006KT P6SM BKN030 FM102300 21008KT P6SM BKN040 PROB30 1023/1024 VRB20G30KT 1SM +TSRA BR BKN020 OVC040CB RMK NXT FCST BY 100600Z